sensor_id;sensor_type;location;lat;lon;timestamp;P1;durP1;ratioP1;P2;durP2;ratioP2
63444;SDS011;49573;47.682;9.170;2023-04-25T00:01:07;6.55;;;3.00;;
63444;SDS011;49573;47.682;9.170;2023-04-25T00:03:54;5.00;;;3.03;;
63444;SDS011;49573;47.682;9.170;2023-04-25T00:06:41;4.47;;;2.67;;
63444;SDS011;49573;47.682;9.170;2023-04-25T00:09:27;4.85;;;3.00;;
63444;SDS011;49573;47.682;9.170;2023-04-25T00:12:13;7.05;;;3.10;;
63444;SDS011;49573;47.682;9.170;2023-04-25T00:17:48;8.05;;;3.83;;
63444;SDS011;49573;47.682;9.170;2023-04-25T00:20:35;7.20;;;3.60;;
63444;SDS011;49573;47.682;9.170;2023-04-25T00:23:21;6.75;;;3.20;;
63444;SDS011;49573;47.682;9.170;2023-04-25T00:26:07;6.82;;;3.65;;
63444;SDS011;49573;47.682;9.170;2023-04-25T00:28:54;6.68;;;3.15;;
63444;SDS011;49573;47.682;9.170;2023-04-25T00:31:41;6.55;;;4.00;;
63444;SDS011;49573;47.682;9.170;2023-04-25T00:34:28;5.32;;;3.13;;
63444;SDS011;49573;47.682;9.170;2023-04-25T00:37:15;6.03;;;3.30;;
63444;SDS011;49573;47.682;9.170;2023-04-25T00:40:01;10.00;;;3.55;;
63444;SDS011;49573;47.682;9.170;2023-04-25T00:42:48;6.35;;;3.28;;
63444;SDS011;49573;47.682;9.170;2023-04-25T00:48:21;9.00;;;3.38;;
63444;SDS011;49573;47.682;9.170;2023-04-25T00:51:09;8.23;;;3.08;;
63444;SDS011;49573;47.682;9.170;2023-04-25T00:53:57;9.75;;;3.50;;
63444;SDS011;49573;47.682;9.170;2023-04-25T00:56:44;7.80;;;3.10;;
63444;SDS011;49573;47.682;9.170;2023-04-25T00:59:30;5.43;;;3.03;;
63444;SDS011;49573;47.682;9.170;2023-04-25T01:02:17;4.43;;;2.88;;
63444;SDS011;49573;47.682;9.170;2023-04-25T01:07:52;6.30;;;3.35;;
63444;SDS011;49573;47.682;9.170;2023-04-25T01:10:38;6.13;;;2.85;;
63444;SDS011;49573;47.682;9.170;2023-04-25T01:13:25;4.20;;;2.58;;
63444;SDS011;49573;47.682;9.170;2023-04-25T01:16:11;7.63;;;2.70;;
63444;SDS011;49573;47.682;9.170;2023-04-25T01:18:57;9.98;;;2.97;;
63444;SDS011;49573;47.682;9.170;2023-04-25T01:21:45;4.57;;;2.50;;
63444;SDS011;49573;47.682;9.170;2023-04-25T01:24:32;6.07;;;2.33;;
63444;SDS011;49573;47.682;9.170;2023-04-25T01:27:18;5.68;;;2.70;;
63444;SDS011;49573;47.682;9.170;2023-04-25T01:30:06;4.28;;;2.42;;
63444;SDS011;49573;47.682;9.170;2023-04-25T01:32:53;4.88;;;2.50;;
63444;SDS011;49573;47.682;9.170;2023-04-25T01:35:41;3.92;;;2.45;;
63444;SDS011;49573;47.682;9.170;2023-04-25T01:38:28;6.65;;;2.90;;
63444;SDS011;49573;47.682;9.170;2023-04-25T01:41:15;6.40;;;2.60;;
63444;SDS011;49573;47.682;9.170;2023-04-25T01:44:03;5.03;;;3.10;;
63444;SDS011;49573;47.682;9.170;2023-04-25T01:46:49;6.20;;;3.30;;
63444;SDS011;49573;47.682;9.170;2023-04-25T01:49:36;6.50;;;2.90;;
63444;SDS011;49573;47.682;9.170;2023-04-25T01:52:22;6.00;;;2.80;;
63444;SDS011;49573;47.682;9.170;2023-04-25T01:55:10;5.00;;;2.88;;
63444;SDS011;49573;47.682;9.170;2023-04-25T01:57:57;5.90;;;2.90;;
63444;SDS011;49573;47.682;9.170;2023-04-25T02:00:44;4.95;;;2.70;;
63444;SDS011;49573;47.682;9.170;2023-04-25T02:03:31;5.22;;;3.20;;
63444;SDS011;49573;47.682;9.170;2023-04-25T02:06:17;4.57;;;3.05;;
63444;SDS011;49573;47.682;9.170;2023-04-25T02:09:04;5.95;;;3.28;;
63444;SDS011;49573;47.682;9.170;2023-04-25T02:11:52;6.13;;;2.78;;
63444;SDS011;49573;47.682;9.170;2023-04-25T02:14:38;9.52;;;3.40;;
63444;SDS011;49573;47.682;9.170;2023-04-25T02:17:25;4.95;;;3.20;;
63444;SDS011;49573;47.682;9.170;2023-04-25T02:20:11;6.22;;;2.92;;
63444;SDS011;49573;47.682;9.170;2023-04-25T02:22:58;5.85;;;3.30;;
63444;SDS011;49573;47.682;9.170;2023-04-25T02:25:44;6.45;;;2.85;;
63444;SDS011;49573;47.682;9.170;2023-04-25T02:28:32;5.80;;;3.20;;
63444;SDS011;49573;47.682;9.170;2023-04-25T02:31:19;4.75;;;3.13;;
63444;SDS011;49573;47.682;9.170;2023-04-25T02:34:05;5.50;;;3.20;;
63444;SDS011;49573;47.682;9.170;2023-04-25T02:36:51;5.20;;;2.78;;
63444;SDS011;49573;47.682;9.170;2023-04-25T02:39:38;4.70;;;2.92;;
63444;SDS011;49573;47.682;9.170;2023-04-25T02:42:24;6.80;;;3.33;;
63444;SDS011;49573;47.682;9.170;2023-04-25T02:45:12;4.57;;;2.97;;
63444;SDS011;49573;47.682;9.170;2023-04-25T02:47:58;4.38;;;3.10;;
63444;SDS011;49573;47.682;9.170;2023-04-25T02:50:44;7.13;;;3.17;;
63444;SDS011;49573;47.682;9.170;2023-04-25T02:53:31;7.93;;;2.95;;
63444;SDS011;49573;47.682;9.170;2023-04-25T02:56:17;5.72;;;3.13;;
63444;SDS011;49573;47.682;9.170;2023-04-25T02:59:03;4.75;;;2.83;;
63444;SDS011;49573;47.682;9.170;2023-04-25T03:01:50;6.75;;;3.00;;
63444;SDS011;49573;47.682;9.170;2023-04-25T03:04:36;6.03;;;3.00;;
63444;SDS011;49573;47.682;9.170;2023-04-25T03:07:22;5.75;;;2.80;;
63444;SDS011;49573;47.682;9.170;2023-04-25T03:10:09;3.80;;;2.60;;
63444;SDS011;49573;47.682;9.170;2023-04-25T03:12:57;6.40;;;2.88;;
63444;SDS011;49573;47.682;9.170;2023-04-25T03:15:43;7.20;;;3.10;;
63444;SDS011;49573;47.682;9.170;2023-04-25T03:18:31;5.63;;;3.20;;
63444;SDS011;49573;47.682;9.170;2023-04-25T03:21:17;6.40;;;3.50;;
63444;SDS011;49573;47.682;9.170;2023-04-25T03:24:04;6.75;;;3.70;;
63444;SDS011;49573;47.682;9.170;2023-04-25T03:26:50;5.68;;;3.00;;
63444;SDS011;49573;47.682;9.170;2023-04-25T03:29:36;7.30;;;3.10;;
63444;SDS011;49573;47.682;9.170;2023-04-25T03:32:22;5.55;;;3.15;;
63444;SDS011;49573;47.682;9.170;2023-04-25T03:35:09;7.63;;;3.35;;
63444;SDS011;49573;47.682;9.170;2023-04-25T03:37:55;5.43;;;3.47;;
63444;SDS011;49573;47.682;9.170;2023-04-25T03:40:41;8.38;;;3.47;;
63444;SDS011;49573;47.682;9.170;2023-04-25T03:43:28;5.20;;;3.17;;
63444;SDS011;49573;47.682;9.170;2023-04-25T03:46:14;5.90;;;3.20;;
63444;SDS011;49573;47.682;9.170;2023-04-25T03:49:00;7.90;;;3.22;;
63444;SDS011;49573;47.682;9.170;2023-04-25T03:51:48;6.57;;;3.00;;
63444;SDS011;49573;47.682;9.170;2023-04-25T03:54:34;5.30;;;3.03;;
63444;SDS011;49573;47.682;9.170;2023-04-25T03:57:21;5.00;;;2.90;;
63444;SDS011;49573;47.682;9.170;2023-04-25T04:00:07;6.18;;;3.35;;
63444;SDS011;49573;47.682;9.170;2023-04-25T04:02:55;5.28;;;3.30;;
63444;SDS011;49573;47.682;9.170;2023-04-25T04:05:41;5.07;;;3.33;;
63444;SDS011;49573;47.682;9.170;2023-04-25T04:08:28;6.93;;;3.53;;
63444;SDS011;49573;47.682;9.170;2023-04-25T04:11:15;6.10;;;3.50;;
63444;SDS011;49573;47.682;9.170;2023-04-25T04:14:01;4.57;;;3.03;;
63444;SDS011;49573;47.682;9.170;2023-04-25T04:16:47;8.75;;;3.67;;
63444;SDS011;49573;47.682;9.170;2023-04-25T04:19:33;6.15;;;3.47;;
63444;SDS011;49573;47.682;9.170;2023-04-25T04:22:19;5.90;;;3.15;;
63444;SDS011;49573;47.682;9.170;2023-04-25T04:25:08;3.55;;;2.78;;
63444;SDS011;49573;47.682;9.170;2023-04-25T04:27:55;6.28;;;3.10;;
63444;SDS011;49573;47.682;9.170;2023-04-25T04:30:41;5.68;;;3.15;;
63444;SDS011;49573;47.682;9.170;2023-04-25T04:33:27;6.53;;;3.70;;
63444;SDS011;49573;47.682;9.170;2023-04-25T04:36:13;7.50;;;4.22;;
63444;SDS011;49573;47.682;9.170;2023-04-25T04:41:49;6.25;;;3.40;;
63444;SDS011;49573;47.682;9.170;2023-04-25T04:44:36;6.85;;;3.53;;
63444;SDS011;49573;47.682;9.170;2023-04-25T04:47:24;7.03;;;3.35;;
63444;SDS011;49573;47.682;9.170;2023-04-25T04:50:11;6.13;;;3.10;;
63444;SDS011;49573;47.682;9.170;2023-04-25T04:52:57;6.78;;;2.97;;
63444;SDS011;49573;47.682;9.170;2023-04-25T04:55:43;4.50;;;3.08;;
63444;SDS011;49573;47.682;9.170;2023-04-25T04:58:32;5.65;;;3.50;;
63444;SDS011;49573;47.682;9.170;2023-04-25T05:01:20;6.85;;;3.30;;
63444;SDS011;49573;47.682;9.170;2023-04-25T05:04:07;5.53;;;2.83;;
63444;SDS011;49573;47.682;9.170;2023-04-25T05:06:53;3.47;;;2.67;;
63444;SDS011;49573;47.682;9.170;2023-04-25T05:09:40;6.78;;;3.20;;
63444;SDS011;49573;47.682;9.170;2023-04-25T05:12:26;9.15;;;3.72;;
63444;SDS011;49573;47.682;9.170;2023-04-25T05:15:14;8.30;;;3.60;;
63444;SDS011;49573;47.682;9.170;2023-04-25T05:18:01;6.47;;;3.65;;
63444;SDS011;49573;47.682;9.170;2023-04-25T05:20:47;5.38;;;3.10;;
63444;SDS011;49573;47.682;9.170;2023-04-25T05:23:33;6.55;;;3.50;;
63444;SDS011;49573;47.682;9.170;2023-04-25T05:26:19;4.53;;;2.90;;
63444;SDS011;49573;47.682;9.170;2023-04-25T05:29:05;5.60;;;3.42;;
63444;SDS011;49573;47.682;9.170;2023-04-25T05:31:53;6.45;;;3.47;;
63444;SDS011;49573;47.682;9.170;2023-04-25T05:34:39;6.05;;;3.10;;
63444;SDS011;49573;47.682;9.170;2023-04-25T05:37:26;7.65;;;3.58;;
63444;SDS011;49573;47.682;9.170;2023-04-25T05:40:12;6.07;;;3.17;;
63444;SDS011;49573;47.682;9.170;2023-04-25T05:42:58;8.48;;;3.00;;
63444;SDS011;49573;47.682;9.170;2023-04-25T05:45:44;7.50;;;3.20;;
63444;SDS011;49573;47.682;9.170;2023-04-25T05:48:32;8.27;;;3.87;;
63444;SDS011;49573;47.682;9.170;2023-04-25T05:51:18;6.57;;;3.60;;
63444;SDS011;49573;47.682;9.170;2023-04-25T05:54:04;5.55;;;3.15;;
63444;SDS011;49573;47.682;9.170;2023-04-25T05:56:50;4.20;;;3.00;;
63444;SDS011;49573;47.682;9.170;2023-04-25T05:59:36;6.53;;;3.33;;
63444;SDS011;49573;47.682;9.170;2023-04-25T06:02:22;10.07;;;3.33;;
63444;SDS011;49573;47.682;9.170;2023-04-25T06:05:10;6.13;;;3.65;;
63444;SDS011;49573;47.682;9.170;2023-04-25T06:07:56;7.00;;;3.00;;
63444;SDS011;49573;47.682;9.170;2023-04-25T06:10:42;6.90;;;3.35;;
63444;SDS011;49573;47.682;9.170;2023-04-25T06:13:28;6.88;;;3.33;;
63444;SDS011;49573;47.682;9.170;2023-04-25T06:16:14;7.65;;;3.53;;
63444;SDS011;49573;47.682;9.170;2023-04-25T06:19:00;6.95;;;3.60;;
63444;SDS011;49573;47.682;9.170;2023-04-25T06:21:47;5.47;;;3.30;;
63444;SDS011;49573;47.682;9.170;2023-04-25T06:24:33;9.48;;;3.50;;
63444;SDS011;49573;47.682;9.170;2023-04-25T06:27:20;7.70;;;3.30;;
63444;SDS011;49573;47.682;9.170;2023-04-25T06:30:06;6.25;;;3.50;;
63444;SDS011;49573;47.682;9.170;2023-04-25T06:32:53;7.00;;;3.78;;
63444;SDS011;49573;47.682;9.170;2023-04-25T06:35:39;5.45;;;3.35;;
63444;SDS011;49573;47.682;9.170;2023-04-25T06:38:26;4.93;;;3.40;;
63444;SDS011;49573;47.682;9.170;2023-04-25T06:41:12;6.22;;;3.63;;
63444;SDS011;49573;47.682;9.170;2023-04-25T06:43:58;9.35;;;3.45;;
63444;SDS011;49573;47.682;9.170;2023-04-25T06:46:44;6.07;;;3.55;;
63444;SDS011;49573;47.682;9.170;2023-04-25T06:49:30;8.10;;;3.78;;
63444;SDS011;49573;47.682;9.170;2023-04-25T06:52:16;4.88;;;3.35;;
63444;SDS011;49573;47.682;9.170;2023-04-25T06:55:05;5.15;;;3.80;;
63444;SDS011;49573;47.682;9.170;2023-04-25T06:57:51;7.30;;;3.67;;
63444;SDS011;49573;47.682;9.170;2023-04-25T07:00:37;6.40;;;3.80;;
63444;SDS011;49573;47.682;9.170;2023-04-25T07:03:23;7.60;;;3.90;;
63444;SDS011;49573;47.682;9.170;2023-04-25T07:06:09;7.40;;;4.23;;
63444;SDS011;49573;47.682;9.170;2023-04-25T07:08:55;5.20;;;3.10;;
63444;SDS011;49573;47.682;9.170;2023-04-25T07:11:43;6.97;;;3.50;;
63444;SDS011;49573;47.682;9.170;2023-04-25T07:14:29;5.18;;;3.03;;
63444;SDS011;49573;47.682;9.170;2023-04-25T07:17:15;8.45;;;3.33;;
63444;SDS011;49573;47.682;9.170;2023-04-25T07:20:01;7.72;;;3.88;;
63444;SDS011;49573;47.682;9.170;2023-04-25T07:22:48;6.40;;;3.45;;
63444;SDS011;49573;47.682;9.170;2023-04-25T07:25:35;5.03;;;3.40;;
63444;SDS011;49573;47.682;9.170;2023-04-25T07:28:23;7.07;;;3.20;;
63444;SDS011;49573;47.682;9.170;2023-04-25T07:31:09;4.82;;;2.60;;
63444;SDS011;49573;47.682;9.170;2023-04-25T07:33:55;3.57;;;2.43;;
63444;SDS011;49573;47.682;9.170;2023-04-25T07:36:41;7.22;;;2.72;;
63444;SDS011;49573;47.682;9.170;2023-04-25T07:39:27;5.90;;;3.10;;
63444;SDS011;49573;47.682;9.170;2023-04-25T07:42:13;4.80;;;2.55;;
63444;SDS011;49573;47.682;9.170;2023-04-25T07:45:01;4.10;;;2.75;;
63444;SDS011;49573;47.682;9.170;2023-04-25T07:47:48;5.20;;;3.25;;
63444;SDS011;49573;47.682;9.170;2023-04-25T07:50:34;4.68;;;3.40;;
63444;SDS011;49573;47.682;9.170;2023-04-25T07:53:20;6.63;;;2.95;;
63444;SDS011;49573;47.682;9.170;2023-04-25T07:56:06;5.50;;;2.60;;
63444;SDS011;49573;47.682;9.170;2023-04-25T07:58:53;4.20;;;2.63;;
63444;SDS011;49573;47.682;9.170;2023-04-25T08:01:40;4.85;;;2.78;;
63444;SDS011;49573;47.682;9.170;2023-04-25T08:04:26;5.20;;;2.60;;
63444;SDS011;49573;47.682;9.170;2023-04-25T08:07:12;6.22;;;2.90;;
63444;SDS011;49573;47.682;9.170;2023-04-25T08:09:58;6.65;;;3.20;;
63444;SDS011;49573;47.682;9.170;2023-04-25T08:12:44;5.53;;;3.13;;
63444;SDS011;49573;47.682;9.170;2023-04-25T08:15:30;5.47;;;4.15;;
63444;SDS011;49573;47.682;9.170;2023-04-25T08:18:18;7.05;;;4.30;;
63444;SDS011;49573;47.682;9.170;2023-04-25T08:21:04;5.05;;;3.53;;
63444;SDS011;49573;47.682;9.170;2023-04-25T08:23:50;5.70;;;3.67;;
63444;SDS011;49573;47.682;9.170;2023-04-25T08:26:36;9.73;;;4.20;;
63444;SDS011;49573;47.682;9.170;2023-04-25T08:29:23;5.00;;;3.60;;
63444;SDS011;49573;47.682;9.170;2023-04-25T08:32:11;6.38;;;3.70;;
63444;SDS011;49573;47.682;9.170;2023-04-25T08:34:58;9.90;;;4.18;;
63444;SDS011;49573;47.682;9.170;2023-04-25T08:37:44;5.43;;;3.55;;
63444;SDS011;49573;47.682;9.170;2023-04-25T08:40:30;4.90;;;3.60;;
63444;SDS011;49573;47.682;9.170;2023-04-25T08:43:23;5.22;;;3.20;;
63444;SDS011;49573;47.682;9.170;2023-04-25T08:46:10;6.60;;;3.22;;
63444;SDS011;49573;47.682;9.170;2023-04-25T08:49:01;4.38;;;3.25;;
63444;SDS011;49573;47.682;9.170;2023-04-25T08:51:49;7.32;;;3.80;;
63444;SDS011;49573;47.682;9.170;2023-04-25T08:54:36;5.03;;;3.00;;
63444;SDS011;49573;47.682;9.170;2023-04-25T08:57:26;5.57;;;3.10;;
63444;SDS011;49573;47.682;9.170;2023-04-25T09:00:14;5.43;;;3.40;;
63444;SDS011;49573;47.682;9.170;2023-04-25T09:03:01;5.20;;;3.33;;
63444;SDS011;49573;47.682;9.170;2023-04-25T09:05:47;5.75;;;3.40;;
63444;SDS011;49573;47.682;9.170;2023-04-25T09:08:34;4.72;;;2.85;;
63444;SDS011;49573;47.682;9.170;2023-04-25T09:11:22;4.10;;;3.03;;
63444;SDS011;49573;47.682;9.170;2023-04-25T09:14:11;4.93;;;3.08;;
63444;SDS011;49573;47.682;9.170;2023-04-25T09:16:59;6.50;;;3.22;;
63444;SDS011;49573;47.682;9.170;2023-04-25T09:19:47;6.50;;;2.97;;
63444;SDS011;49573;47.682;9.170;2023-04-25T09:22:33;5.68;;;3.08;;
63444;SDS011;49573;47.682;9.170;2023-04-25T09:25:21;4.40;;;2.70;;
63444;SDS011;49573;47.682;9.170;2023-04-25T09:28:10;4.07;;;2.80;;
63444;SDS011;49573;47.682;9.170;2023-04-25T09:30:56;3.72;;;2.40;;
63444;SDS011;49573;47.682;9.170;2023-04-25T09:33:43;4.18;;;2.65;;
63444;SDS011;49573;47.682;9.170;2023-04-25T09:36:29;4.93;;;3.00;;
63444;SDS011;49573;47.682;9.170;2023-04-25T09:39:15;4.03;;;2.88;;
63444;SDS011;49573;47.682;9.170;2023-04-25T09:42:04;4.63;;;2.58;;
63444;SDS011;49573;47.682;9.170;2023-04-25T09:44:51;5.50;;;3.10;;
63444;SDS011;49573;47.682;9.170;2023-04-25T09:50:24;4.93;;;2.53;;
63444;SDS011;49573;47.682;9.170;2023-04-25T09:53:10;4.10;;;2.22;;
63444;SDS011;49573;47.682;9.170;2023-04-25T09:55:56;4.07;;;2.15;;
63444;SDS011;49573;47.682;9.170;2023-04-25T09:58:46;3.20;;;2.20;;
63444;SDS011;49573;47.682;9.170;2023-04-25T10:01:34;2.20;;;1.80;;
63444;SDS011;49573;47.682;9.170;2023-04-25T10:07:09;3.78;;;2.20;;
63444;SDS011;49573;47.682;9.170;2023-04-25T10:09:58;3.08;;;1.90;;
63444;SDS011;49573;47.682;9.170;2023-04-25T10:12:47;3.10;;;2.00;;
63444;SDS011;49573;47.682;9.170;2023-04-25T10:15:35;2.47;;;1.77;;
63444;SDS011;49573;47.682;9.170;2023-04-25T10:18:28;2.80;;;2.03;;
63444;SDS011;49573;47.682;9.170;2023-04-25T10:21:14;2.28;;;1.77;;
63444;SDS011;49573;47.682;9.170;2023-04-25T10:24:03;3.03;;;1.80;;
63444;SDS011;49573;47.682;9.170;2023-04-25T10:26:49;2.38;;;1.77;;
63444;SDS011;49573;47.682;9.170;2023-04-25T10:29:36;1.85;;;1.58;;
63444;SDS011;49573;47.682;9.170;2023-04-25T10:32:24;3.90;;;1.73;;
63444;SDS011;49573;47.682;9.170;2023-04-25T10:35:10;2.15;;;1.70;;
63444;SDS011;49573;47.682;9.170;2023-04-25T10:38:02;3.00;;;2.05;;
63444;SDS011;49573;47.682;9.170;2023-04-25T10:41:02;2.58;;;1.70;;
63444;SDS011;49573;47.682;9.170;2023-04-25T10:43:49;3.40;;;2.05;;
63444;SDS011;49573;47.682;9.170;2023-04-25T10:46:44;1.88;;;1.52;;
63444;SDS011;49573;47.682;9.170;2023-04-25T10:49:33;1.80;;;1.40;;
63444;SDS011;49573;47.682;9.170;2023-04-25T10:52:24;1.67;;;1.40;;
63444;SDS011;49573;47.682;9.170;2023-04-25T10:55:11;1.88;;;1.40;;
63444;SDS011;49573;47.682;9.170;2023-04-25T10:57:57;3.10;;;1.65;;
63444;SDS011;49573;47.682;9.170;2023-04-25T11:00:43;1.73;;;1.20;;
63444;SDS011;49573;47.682;9.170;2023-04-25T11:03:29;1.83;;;1.33;;
63444;SDS011;49573;47.682;9.170;2023-04-25T11:06:20;1.45;;;1.20;;
63444;SDS011;49573;47.682;9.170;2023-04-25T11:09:12;1.63;;;1.23;;
63444;SDS011;49573;47.682;9.170;2023-04-25T11:11:59;2.10;;;1.43;;
63444;SDS011;49573;47.682;9.170;2023-04-25T11:14:45;1.30;;;1.17;;
63444;SDS011;49573;47.682;9.170;2023-04-25T11:17:31;1.27;;;1.17;;
63444;SDS011;49573;47.682;9.170;2023-04-25T11:20:18;1.80;;;1.05;;
63444;SDS011;49573;47.682;9.170;2023-04-25T11:23:06;1.17;;;1.08;;
63444;SDS011;49573;47.682;9.170;2023-04-25T11:25:52;1.10;;;0.80;;
63444;SDS011;49573;47.682;9.170;2023-04-25T11:28:38;0.98;;;0.95;;
63444;SDS011;49573;47.682;9.170;2023-04-25T11:31:24;1.10;;;1.00;;
63444;SDS011;49573;47.682;9.170;2023-04-25T11:34:10;1.05;;;0.90;;
63444;SDS011;49573;47.682;9.170;2023-04-25T11:36:57;1.25;;;0.88;;
63444;SDS011;49573;47.682;9.170;2023-04-25T11:39:45;1.15;;;0.82;;
63444;SDS011;49573;47.682;9.170;2023-04-25T11:42:32;1.20;;;0.90;;
63444;SDS011;49573;47.682;9.170;2023-04-25T11:45:18;0.93;;;0.77;;
63444;SDS011;49573;47.682;9.170;2023-04-25T11:48:05;0.90;;;0.80;;
63444;SDS011;49573;47.682;9.170;2023-04-25T11:50:51;2.13;;;1.27;;
63444;SDS011;49573;47.682;9.170;2023-04-25T11:53:40;0.50;;;0.40;;
63444;SDS011;49573;47.682;9.170;2023-04-25T11:56:28;0.57;;;0.45;;
63444;SDS011;49573;47.682;9.170;2023-04-25T11:59:14;0.98;;;0.60;;
63444;SDS011;49573;47.682;9.170;2023-04-25T12:02:02;1.85;;;0.55;;
63444;SDS011;49573;47.682;9.170;2023-04-25T12:04:48;0.52;;;0.40;;
63444;SDS011;49573;47.682;9.170;2023-04-25T12:07:34;0.85;;;0.60;;
63444;SDS011;49573;47.682;9.170;2023-04-25T12:10:20;0.73;;;0.50;;
63444;SDS011;49573;47.682;9.170;2023-04-25T12:13:21;1.58;;;0.57;;
63444;SDS011;49573;47.682;9.170;2023-04-25T12:16:08;0.45;;;0.43;;
63444;SDS011;49573;47.682;9.170;2023-04-25T12:18:55;5.47;;;1.27;;
63444;SDS011;49573;47.682;9.170;2023-04-25T12:21:42;1.67;;;0.80;;
63444;SDS011;49573;47.682;9.170;2023-04-25T12:24:28;1.27;;;0.77;;
63444;SDS011;49573;47.682;9.170;2023-04-25T12:27:15;2.17;;;0.60;;
63444;SDS011;49573;47.682;9.170;2023-04-25T12:32:50;2.22;;;0.40;;
63444;SDS011;49573;47.682;9.170;2023-04-25T12:35:36;1.60;;;0.63;;
63444;SDS011;49573;47.682;9.170;2023-04-25T12:38:22;3.17;;;1.25;;
63444;SDS011;49573;47.682;9.170;2023-04-25T12:41:09;5.75;;;4.18;;
63444;SDS011;49573;47.682;9.170;2023-04-25T12:43:55;3.80;;;2.23;;
63444;SDS011;49573;47.682;9.170;2023-04-25T12:46:43;2.35;;;0.93;;
63444;SDS011;49573;47.682;9.170;2023-04-25T12:49:29;0.60;;;0.60;;
63444;SDS011;49573;47.682;9.170;2023-04-25T12:52:15;1.13;;;0.80;;
63444;SDS011;49573;47.682;9.170;2023-04-25T12:55:01;1.17;;;0.82;;
63444;SDS011;49573;47.682;9.170;2023-04-25T13:00:34;1.52;;;1.02;;
63444;SDS011;49573;47.682;9.170;2023-04-25T13:03:21;0.85;;;0.60;;
63444;SDS011;49573;47.682;9.170;2023-04-25T13:06:07;0.75;;;0.63;;
63444;SDS011;49573;47.682;9.170;2023-04-25T13:08:53;1.50;;;1.00;;
63444;SDS011;49573;47.682;9.170;2023-04-25T13:11:39;1.07;;;0.80;;
63444;SDS011;49573;47.682;9.170;2023-04-25T13:14:26;1.55;;;0.93;;
63444;SDS011;49573;47.682;9.170;2023-04-25T13:17:13;1.90;;;1.27;;
63444;SDS011;49573;47.682;9.170;2023-04-25T13:20:00;1.35;;;1.02;;
63444;SDS011;49573;47.682;9.170;2023-04-25T13:22:46;1.58;;;1.30;;
63444;SDS011;49573;47.682;9.170;2023-04-25T13:25:32;1.75;;;1.10;;
63444;SDS011;49573;47.682;9.170;2023-04-25T13:28:19;3.08;;;1.15;;
63444;SDS011;49573;47.682;9.170;2023-04-25T13:31:05;3.17;;;1.70;;
63444;SDS011;49573;47.682;9.170;2023-04-25T13:33:51;2.50;;;1.63;;
63444;SDS011;49573;47.682;9.170;2023-04-25T13:36:38;3.30;;;1.77;;
63444;SDS011;49573;47.682;9.170;2023-04-25T13:39:24;1.33;;;1.15;;
63444;SDS011;49573;47.682;9.170;2023-04-25T13:42:10;2.00;;;1.50;;
63444;SDS011;49573;47.682;9.170;2023-04-25T13:44:56;2.17;;;1.50;;
63444;SDS011;49573;47.682;9.170;2023-04-25T13:47:42;4.63;;;1.50;;
63444;SDS011;49573;47.682;9.170;2023-04-25T13:50:28;3.45;;;1.60;;
63444;SDS011;49573;47.682;9.170;2023-04-25T13:53:16;2.05;;;1.40;;
63444;SDS011;49573;47.682;9.170;2023-04-25T13:56:03;1.23;;;0.90;;
63444;SDS011;49573;47.682;9.170;2023-04-25T13:58:50;1.80;;;1.45;;
63444;SDS011;49573;47.682;9.170;2023-04-25T14:01:37;1.90;;;1.40;;
63444;SDS011;49573;47.682;9.170;2023-04-25T14:04:23;1.33;;;1.05;;
63444;SDS011;49573;47.682;9.170;2023-04-25T14:07:10;1.83;;;1.20;;
63444;SDS011;49573;47.682;9.170;2023-04-25T14:09:57;1.88;;;0.98;;
63444;SDS011;49573;47.682;9.170;2023-04-25T14:12:43;3.78;;;1.58;;
63444;SDS011;49573;47.682;9.170;2023-04-25T14:15:30;1.57;;;1.27;;
63444;SDS011;49573;47.682;9.170;2023-04-25T14:18:17;1.80;;;1.30;;
63444;SDS011;49573;47.682;9.170;2023-04-25T14:21:03;3.05;;;1.38;;
63444;SDS011;49573;47.682;9.170;2023-04-25T14:26:37;1.45;;;1.05;;
63444;SDS011;49573;47.682;9.170;2023-04-25T14:29:23;2.53;;;1.50;;
63444;SDS011;49573;47.682;9.170;2023-04-25T14:32:09;2.17;;;1.35;;
63444;SDS011;49573;47.682;9.170;2023-04-25T14:34:56;1.42;;;1.25;;
63444;SDS011;49573;47.682;9.170;2023-04-25T14:37:42;2.72;;;1.60;;
63444;SDS011;49573;47.682;9.170;2023-04-25T14:40:28;4.70;;;1.80;;
63444;SDS011;49573;47.682;9.170;2023-04-25T14:43:16;1.98;;;1.52;;
63444;SDS011;49573;47.682;9.170;2023-04-25T14:46:02;2.33;;;1.48;;
63444;SDS011;49573;47.682;9.170;2023-04-25T14:48:48;1.52;;;1.25;;
63444;SDS011;49573;47.682;9.170;2023-04-25T14:51:34;2.90;;;1.63;;
63444;SDS011;49573;47.682;9.170;2023-04-25T14:54:20;3.22;;;1.75;;
63444;SDS011;49573;47.682;9.170;2023-04-25T14:57:06;2.33;;;1.70;;
63444;SDS011;49573;47.682;9.170;2023-04-25T14:59:54;2.58;;;1.70;;
63444;SDS011;49573;47.682;9.170;2023-04-25T15:02:40;1.95;;;1.40;;
63444;SDS011;49573;47.682;9.170;2023-04-25T15:05:27;1.63;;;1.35;;
63444;SDS011;49573;47.682;9.170;2023-04-25T15:08:13;2.35;;;1.50;;
63444;SDS011;49573;47.682;9.170;2023-04-25T15:10:59;2.60;;;1.50;;
63444;SDS011;49573;47.682;9.170;2023-04-25T15:13:45;1.45;;;1.23;;
63444;SDS011;49573;47.682;9.170;2023-04-25T15:16:32;2.95;;;1.52;;
63444;SDS011;49573;47.682;9.170;2023-04-25T15:19:18;2.95;;;1.40;;
63444;SDS011;49573;47.682;9.170;2023-04-25T15:24:52;3.42;;;1.35;;
63444;SDS011;49573;47.682;9.170;2023-04-25T15:27:38;1.85;;;1.40;;
63444;SDS011;49573;47.682;9.170;2023-04-25T15:30:30;2.17;;;1.30;;
63444;SDS011;49573;47.682;9.170;2023-04-25T15:33:17;1.55;;;1.17;;
63444;SDS011;49573;47.682;9.170;2023-04-25T15:36:04;2.42;;;1.40;;
63444;SDS011;49573;47.682;9.170;2023-04-25T15:38:50;1.38;;;1.02;;
63444;SDS011;49573;47.682;9.170;2023-04-25T15:41:36;1.20;;;1.10;;
63444;SDS011;49573;47.682;9.170;2023-04-25T15:44:22;3.93;;;1.57;;
63444;SDS011;49573;47.682;9.170;2023-04-25T15:47:08;2.03;;;1.55;;
63444;SDS011;49573;47.682;9.170;2023-04-25T15:49:56;1.85;;;1.20;;
63444;SDS011;49573;47.682;9.170;2023-04-25T15:52:42;1.92;;;1.40;;
63444;SDS011;49573;47.682;9.170;2023-04-25T15:55:28;2.55;;;1.50;;
63444;SDS011;49573;47.682;9.170;2023-04-25T15:58:14;3.60;;;1.70;;
63444;SDS011;49573;47.682;9.170;2023-04-25T16:01:00;3.30;;;1.55;;
63444;SDS011;49573;47.682;9.170;2023-04-25T16:06:35;2.78;;;1.52;;
63444;SDS011;49573;47.682;9.170;2023-04-25T16:09:21;3.20;;;1.80;;
63444;SDS011;49573;47.682;9.170;2023-04-25T16:12:08;3.50;;;2.00;;
63444;SDS011;49573;47.682;9.170;2023-04-25T16:14:55;8.07;;;1.70;;
63444;SDS011;49573;47.682;9.170;2023-04-25T16:20:28;3.03;;;1.88;;
63444;SDS011;49573;47.682;9.170;2023-04-25T16:23:16;2.13;;;1.40;;
63444;SDS011;49573;47.682;9.170;2023-04-25T16:26:02;2.33;;;1.55;;
63444;SDS011;49573;47.682;9.170;2023-04-25T16:28:48;3.38;;;1.60;;
63444;SDS011;49573;47.682;9.170;2023-04-25T16:31:34;4.25;;;1.90;;
63444;SDS011;49573;47.682;9.170;2023-04-25T16:34:21;2.05;;;1.48;;
63444;SDS011;49573;47.682;9.170;2023-04-25T16:37:07;5.22;;;1.95;;
63444;SDS011;49573;47.682;9.170;2023-04-25T16:39:56;2.47;;;1.60;;
63444;SDS011;49573;47.682;9.170;2023-04-25T16:42:42;4.15;;;2.20;;
63444;SDS011;49573;47.682;9.170;2023-04-25T16:45:28;2.47;;;1.55;;
63444;SDS011;49573;47.682;9.170;2023-04-25T16:48:14;2.63;;;1.92;;
63444;SDS011;49573;47.682;9.170;2023-04-25T16:51:03;2.60;;;1.50;;
63444;SDS011;49573;47.682;9.170;2023-04-25T16:53:49;2.03;;;1.60;;
63444;SDS011;49573;47.682;9.170;2023-04-25T16:56:37;2.13;;;1.65;;
63444;SDS011;49573;47.682;9.170;2023-04-25T16:59:23;2.45;;;1.50;;
63444;SDS011;49573;47.682;9.170;2023-04-25T17:02:09;2.65;;;1.55;;
63444;SDS011;49573;47.682;9.170;2023-04-25T17:04:57;3.58;;;2.00;;
63444;SDS011;49573;47.682;9.170;2023-04-25T17:07:43;2.47;;;1.73;;
63444;SDS011;49573;47.682;9.170;2023-04-25T17:10:29;3.50;;;2.08;;
63444;SDS011;49573;47.682;9.170;2023-04-25T17:13:17;2.72;;;1.88;;
63444;SDS011;49573;47.682;9.170;2023-04-25T17:16:03;3.80;;;1.85;;
63444;SDS011;49573;47.682;9.170;2023-04-25T17:18:49;3.67;;;1.80;;